Terminal Aerodrome Forecast
Issued by NWS

Home | Current Version | Previous Version | Text Only | Print | Product List | Glossary On
Versions: 1 2 3 4 5 6 7 8 9 10 11 12 13 14 15 16 17 18 19 20 21 22 23 24 25 26 27 28 29
822
FTUS45 KPSR 020520
TAFPHX
TAF
KPHX 020520Z 0206/0306 10005KT P6SM SKC
      TEMPO 0215/0216 09009KT
     FM022200 28004KT P6SM FEW080=

USA.gov is the U.S. government's official web portal to all federal, state and local government web resources and services.